NCAR-RAP Real-Time Weather Data

Output produced by METARs form (23 August 2019  05:12 UTC)
found at http://weather.rap.ucar.edu/surface/
 
MKJP 230500Z VRB02KT 9999 FEW022 29/22 Q1014
MKJP 230400Z 01006KT 9999 FEW022 29/23 Q1015
MKJP 230300Z 02006KT 9999 FEW022 29/23 Q1015
MKJP 230200Z 34008KT 9999 FEW022 29/23 Q1014
MKJP 230100Z 13006KT 9999 FEW022 30/23 Q1013
MKJP 230000Z 12009KT 9999 FEW022 30/24 Q1013
MKJP 222300Z 14010KT 9999 FEW022 30/23 Q1013
MKJP 222200Z 17010KT 9999 FEW018 FEW020CB 31/23 Q1013
MKJP 222100Z 15013KT 9999 FEW018 FEW020CB 31/22 Q1013 RETS
MKJP 222000Z 16014KT 9999 TS SCT020CB 31/23 Q1013
MKJP 221900Z 18013KT 9999 FEW022CB 32/23 Q1014
MKJP 221800Z 21007KT 9999 FEW020 FEW022CB 32/24 Q1014